Latest Weather Observations for Holmes Reef

IDQ60801

Issued at 3:32 pm EST Sunday 26 February 2017 (issued every 30 minutes, with the page automatically refreshed every 10 minutes)

About weather observations | Map of weather stations | Latest weather observations for QLD | Other Formats
Station Details ID: 200732 Name: HOLMES REEF Lat: -16.47 Lon: 147.87 Height: 1.9 m
Data from the previous 72 hours. | See also: Recent months at Holmes Reef
Date/Time
EST
Temp
°C
App
Temp
°C
Dew
Point
°C
Rel
Hum
%
Delta-T
°C
Wind Press
QNH
hPa
Press
MSL
hPa
Rain since
9am
mm
Dir  Spd
km/h
Gust
km/h
Spd
kts
Gust
kts
26/03:15pm 29.0 - - - - SE 26 30 14 16 1007.2 1006.9 -
26/03:00pm 29.0 - - - - SE 24 28 13 15 1007.3 - -
26/02:30pm 28.9 - - - - SE 28 32 15 17 1007.4 - -
26/02:15pm 28.9 - - - - SE 26 - 14 - - 1007.2 -
26/02:00pm 28.8 - - - - SE 28 32 15 17 1007.6 - -
26/01:30pm 29.0 - - - - SE 26 32 14 17 1007.9 - -
26/01:15pm 29.1 - - - - SE 26 - 14 - - 1007.7 -
26/01:00pm 28.9 - - - - SSE 26 30 14 16 1008.2 - -
26/12:30pm 28.7 - - - - SE 26 30 14 16 1008.6 - -
26/12:15pm 28.8 - - - - SSE 28 - 15 - - 1008.4 -
26/12:00pm 28.9 - - - - SE 30 33 16 18 1008.8 - -
26/11:30am 28.9 - - - - SE 28 32 15 17 1009.2 - -
26/11:15am 29.1 - - - - SSE 26 - 14 - - 1008.9 -
26/11:00am 29.0 - - - - SE 24 30 13 16 1009.3 - -
26/10:30am 29.2 - - - - SSE 24 28 13 15 1009.5 - -
26/10:15am 29.2 - - - - SSE 22 - 12 - - 1009.3 -
26/10:00am 29.2 - - - - SE 24 30 13 16 1009.6 - -
26/09:30am 28.9 - - - - SE 24 30 13 16 1009.8 - -
26/09:15am 28.9 - - - - SSE 26 - 14 - - 1009.6 -
26/09:00am 29.2 - - - - SE 19 26 10 14 1009.8 - -
26/08:30am 29.2 - - - - SE 24 30 13 16 1009.8 - -
26/08:15am 29.1 - - - - SE 22 - 12 - - 1009.5 -
26/08:00am 29.0 - - - - SE 24 28 13 15 1009.6 - -
26/07:30am 28.9 - - - - ESE 22 28 12 15 1009.2 - -
26/07:15am 28.8 - - - - ESE 24 - 13 - - 1008.6 -
26/07:00am 28.7 - - - - ESE 24 28 13 15 1008.6 - -
26/06:30am 28.6 - - - - ESE 22 28 12 15 1008.3 - -
26/06:15am 28.4 - - - - ESE 26 - 14 - - 1007.7 -
26/06:00am 28.4 - - - - ESE 28 33 15 18 1007.7 - -
26/05:30am 28.5 - - - - ESE 22 26 12 14 1007.6 - -
26/05:15am 28.6 - - - - ESE 24 - 13 - - 1007.3 -
26/05:00am 28.6 - - - - ESE 24 30 13 16 1007.6 - -
26/04:30am 28.6 - - - - ESE 26 32 14 17 1007.4 - -
26/04:15am 28.5 - - - - ESE 22 - 12 - - 1007.2 -
26/04:00am 28.7 - - - - ESE 22 26 12 14 1007.5 - -
26/03:30am 28.6 - - - - ESE 26 30 14 16 1007.6 - -
26/03:15am 28.6 - - - - ESE 24 - 13 - - 1007.4 -
26/03:00am 28.7 - - - - ESE 28 32 15 17 1007.8 - -
26/02:30am 28.7 - - - - ESE 26 32 14 17 1007.9 - -
26/02:15am 28.6 - - - - ESE 28 - 15 - - 1007.7 -
26/02:00am 28.6 - - - - ESE 30 35 16 19 1008.0 - -
26/01:30am 28.8 - - - - E 26 28 14 15 1008.3 - -
26/01:15am 28.8 - - - - E 28 - 15 - - 1008.1 -
26/01:00am 28.8 - - - - ESE 26 32 14 17 1008.6 - -
26/12:30am 28.9 - - - - ESE 28 32 15 17 1009.0 - -
26/12:15am 28.9 - - - - ESE 28 - 15 - - 1008.9 -
26/12:00am 29.0 - - - - ESE 32 35 17 19 1009.2 - -
 
Date/Time
EST
Temp
°C
App
Temp
°C
Dew
Point
°C
Rel
Hum
%
Delta-T
°C
Wind Press
QNH
hPa
Press
MSL
hPa
Rain since
9am
mm
Dir  Spd
km/h
Gust
km/h
Spd
kts
Gust
kts
25/11:30pm 29.0 - - - - ESE 32 35 17 19 1009.5 - -
25/11:15pm 29.1 - - - - ESE 32 - 17 - - 1009.4 -
25/11:00pm 29.0 - - - - ESE 33 39 18 21 1009.8 - -
25/10:30pm 29.1 - - - - ESE 33 39 18 21 1009.8 - -
25/10:15pm 29.0 - - - - ESE 35 - 19 - - 1009.5 -
25/10:00pm 29.1 - - - - ESE 33 39 18 21 1009.7 - -
25/09:30pm 29.1 - - - - ESE 35 39 19 21 1009.8 - -
25/09:15pm 29.2 - - - - ESE 35 - 19 - - 1009.3 -
25/09:00pm 29.2 - - - - ESE 33 41 18 22 1009.6 - -
25/08:30pm 29.2 - - - - ESE 33 39 18 21 1009.4 - -
25/08:15pm 29.2 - - - - ESE 32 - 17 - - 1008.9 -
25/08:00pm 29.2 - - - - ESE 32 37 17 20 1009.1 - -
25/07:30pm 29.2 - - - - ESE 32 37 17 20 1008.8 - -
25/07:15pm 29.2 - - - - ESE 35 - 19 - - 1008.2 -
25/07:00pm 29.3 - - - - ESE 35 43 19 23 1008.4 - -
25/06:30pm 29.3 - - - - SE 35 43 19 23 1008.1 - -
25/06:15pm 29.4 - - - - SE 35 - 19 - - 1007.7 -
25/06:00pm 29.4 - - - - SE 37 41 20 22 1007.9 - -
25/05:30pm 29.5 - - - - ESE 32 39 17 21 1007.6 - -
25/05:15pm 29.3 - - - - SE 32 - 17 - - 1007.2 -
25/05:00pm 29.3 - - - - SE 30 33 16 18 1007.6 - -
25/04:30pm 29.5 - - - - ESE 30 37 16 20 1007.5 - -
25/04:15pm 29.4 - - - - ESE 30 - 16 - - 1007.4 -
25/04:00pm 29.4 - - - - ESE 30 35 16 19 1007.8 - -
25/03:30pm 29.4 - - - - SE 32 35 17 19 1007.7 - -
25/03:15pm 29.3 - - - - ESE 32 - 17 - - 1007.5 -
25/03:00pm 29.3 - - - - ESE 32 35 17 19 1007.9 - -
25/02:30pm 29.3 - - - - SE 32 35 17 19 1008.2 - -
25/02:15pm 29.4 - - - - SE 32 - 17 - - 1008.0 -
25/02:00pm 29.3 - - - - SE 30 35 16 19 1008.4 - -
25/01:30pm 29.3 - - - - ESE 32 35 17 19 1008.6 - -
25/01:15pm 29.3 - - - - ESE 30 - 16 - - 1008.4 -
25/01:00pm 29.3 - - - - ESE 30 35 16 19 1008.8 - -
25/12:30pm 29.0 - - - - ESE 30 35 16 19 1009.2 - -
25/12:15pm 28.2 - - - - E 20 - 11 - - 1009.1 -
25/12:00pm 26.4 - - - - ESE 17 26 9 14 1009.8 - -
25/11:33am 27.4 - - - - SE 43 46 23 25 1010.1 - -
25/11:30am 28.5 - - - - SE 22 26 12 14 1010.2 - -
25/11:15am 28.3 - - - - SE 28 - 15 - - 1010.0 -
25/11:00am 28.4 - - - - ESE 28 32 15 17 1010.5 - -
25/10:30am 28.7 - - - - ESE 22 30 12 16 1010.9 - -
25/10:15am 27.2 - - - - ESE 30 - 16 - - 1010.6 -
25/10:10am 27.2 - - - - ESE 28 46 15 25 1010.7 - -
25/10:00am 28.9 - - - - ESE 22 24 12 13 1010.8 - -
25/09:30am 29.3 - - - - ESE 26 32 14 17 1010.9 - -
25/09:15am 29.2 - - - - ESE 22 - 12 - - 1010.6 -
25/09:00am 29.2 - - - - ESE 24 28 13 15 1010.8 - -
25/08:30am 29.2 - - - - ESE 22 26 12 14 1010.7 - -
25/08:15am 29.2 - - - - ESE 26 - 14 - - 1010.3 -
25/08:00am 29.2 - - - - ESE 26 30 14 16 1010.6 - -
25/07:30am 29.1 - - - - ESE 26 30 14 16 1010.4 - -
25/07:15am 29.3 - - - - ESE 24 - 13 - - 1010.2 -
25/07:00am 28.9 - - - - ESE 22 28 12 15 1010.3 - -
25/06:30am 28.3 - - - - E 30 37 16 20 1010.0 - -
25/06:15am 29.1 - - - - ESE 26 - 14 - - 1009.6 -
25/06:00am 29.0 - - - - ESE 28 30 15 16 1009.8 - -
25/05:30am 28.9 - - - - ESE 30 33 16 18 1009.5 - -
25/05:15am 28.7 - - - - ESE 30 - 16 - - 1009.1 -
25/05:00am 29.0 - - - - ESE 28 30 15 16 1009.3 - -
25/04:30am 29.0 - - - - ESE 30 33 16 18 1009.0 - -
25/04:15am 28.7 - - - - SE 26 - 14 - - 1008.6 -
25/04:03am 28.4 - - - - SE 33 35 18 19 1008.9 - -
25/04:00am 28.6 - - - - SE 4 6 2 3 1008.9 - -
25/03:30am 29.0 - - - - ESE 4 6 2 3 1009.0 - -
25/03:15am 28.9 - - - - ESE 4 - 2 - - 1008.8 -
25/03:00am 28.8 - - - - ESE 4 6 2 3 1008.9 - -
25/02:30am 28.7 - - - - ESE 4 6 2 3 1009.0 - -
25/02:15am 28.7 - - - - ESE 4 - 2 - - 1008.7 -
25/02:00am 28.8 - - - - ESE 2 6 1 3 1009.1 - -
25/01:30am 28.9 - - - - ESE 4 6 2 3 1009.4 - -
25/01:15am 28.9 - - - - ESE 4 - 2 - - 1009.3 -
25/01:00am 28.9 - - - - ESE 4 6 2 3 1009.9 - -
25/12:30am 28.7 - - - - SE 2 6 1 3 1010.4 - -
25/12:15am 28.9 - - - - ESE 4 - 2 - - 1010.2 -
25/12:00am 29.0 - - - - ESE 4 6 2 3 1010.7 - -
 
Date/Time
EST
Temp
°C
App
Temp
°C
Dew
Point
°C
Rel
Hum
%
Delta-T
°C
Wind Press
QNH
hPa
Press
MSL
hPa
Rain since
9am
mm
Dir  Spd
km/h
Gust
km/h
Spd
kts
Gust
kts
24/11:30pm 29.0 - - - - ESE 2 6 1 3 1011.1 - -
24/11:15pm 28.9 - - - - ESE 4 - 2 - - 1010.9 -
24/11:00pm 28.9 - - - - ESE 4 6 2 3 1011.2 - -
24/10:30pm 28.6 - - - - ESE 4 6 2 3 1011.2 - -
24/10:15pm 28.9 - - - - ESE 4 - 2 - - 1011.0 -
24/10:00pm 28.8 - - - - ESE 4 6 2 3 1011.2 - -
24/09:30pm 29.0 - - - - ESE 4 6 2 3 1011.1 - -
24/09:15pm 29.1 - - - - ESE 4 - 2 - - 1010.8 -
24/09:00pm 29.1 - - - - ESE 4 6 2 3 1010.8 - -
24/08:30pm 29.2 - - - - ESE 4 6 2 3 1010.7 - -
24/08:15pm 29.2 - - - - ESE 4 - 2 - - 1010.1 -
24/08:00pm 29.3 - - - - ESE 4 6 2 3 1010.4 - -
24/07:30pm 29.3 - - - - ESE 4 6 2 3 1010.3 - -
24/07:15pm 29.4 - - - - ESE 4 - 2 - - 1009.9 -
24/07:00pm 29.3 - - - - ESE 4 6 2 3 1010.1 - -
24/06:30pm 29.4 - - - - ESE 4 6 2 3 1009.9 - -
24/06:15pm 29.3 - - - - ESE 4 - 2 - - 1009.5 -
24/06:00pm 29.4 - - - - ESE 4 6 2 3 1009.7 - -
24/05:30pm 29.4 - - - - SE 2 6 1 3 1009.3 - -
24/05:15pm 29.1 - - - - ESE 2 - 1 - - 1009.1 -
24/05:00pm 28.9 - - - - ESE 11 20 6 11 1009.4 - -
24/04:30pm 28.4 - - - - E 19 22 10 12 1009.6 - -
24/04:15pm 28.0 - - - - E 22 - 12 - - 1009.2 -
24/04:00pm 28.0 - - - - ESE 30 35 16 19 1009.3 - -
24/03:30pm 28.8 - - - - SSE 24 26 13 14 1009.2 - -
24/03:15pm 28.8 - - - - SE 22 - 12 - - 1008.9 -
24/03:00pm 29.1 - - - - SE 24 26 13 14 1009.4 - -
24/02:30pm 28.7 - - - - SE 26 32 14 17 1009.5 - -
24/02:15pm 29.4 - - - - SE 20 - 11 - - 1009.4 -
24/02:00pm 29.5 - - - - SE 20 24 11 13 1009.9 - -
24/01:30pm 28.6 - - - - S 22 26 12 14 1010.3 - -
24/01:15pm 28.1 - - - - S 24 - 13 - - 1010.0 -
24/01:00pm 29.1 - - - - SSE 24 28 13 15 1010.4 - -
24/12:30pm 29.5 - - - - E 19 20 10 11 1011.0 - -
24/12:15pm 29.5 - - - - ESE 19 - 10 - - 1011.0 -
24/12:00pm 29.6 - - - - E 19 22 10 12 1011.6 - -
24/11:30am 29.4 - - - - ESE 20 24 11 13 1012.0 - -
24/11:15am 29.6 - - - - ESE 20 - 11 - - 1011.7 -
24/11:00am 29.5 - - - - E 22 26 12 14 1012.3 - -
24/10:30am 29.4 - - - - E 19 22 10 12 1012.4 - -
24/10:15am 29.5 - - - - ESE 20 - 11 - - 1012.1 -
24/10:00am 29.5 - - - - E 22 24 12 13 1012.6 - -
24/09:30am 29.4 - - - - E 22 26 12 14 1012.6 - -
24/09:15am 29.3 - - - - E 22 - 12 - - 1012.3 -
24/09:00am 29.3 - - - - ESE 26 30 14 16 1012.4 - -
24/08:30am 29.3 - - - - ESE 26 30 14 16 1012.3 - -
24/08:15am 29.3 - - - - E 28 - 15 - - 1011.9 -
24/08:00am 29.1 - - - - ESE 26 28 14 15 1012.0 - -
24/07:30am 29.1 - - - - ESE 28 32 15 17 1011.8 - -
24/07:15am 29.2 - - - - E 30 - 16 - - 1011.3 -
24/07:00am 28.8 - - - - E 30 35 16 19 1011.5 - -
24/06:30am 29.1 - - - - ESE 28 32 15 17 1011.4 - -
24/06:15am 29.0 - - - - E 30 - 16 - - 1010.8 -
24/06:00am 28.7 - - - - ESE 26 30 14 16 1010.7 - -
24/05:30am 28.1 - - - - ENE 28 32 15 17 1010.8 - -
24/05:15am 28.8 - - - - E 30 - 16 - - 1010.3 -
24/05:00am 27.8 - - - - E 35 43 19 23 1010.7 - -
24/04:50am 28.1 - - - - E 37 43 20 23 1010.5 - -
24/04:30am 28.9 - - - - ESE 4 6 2 3 1010.4 - -
24/04:15am 29.0 - - - - ESE 4 - 2 - - 1010.2 -
24/04:00am 28.8 - - - - ESE 4 6 2 3 1010.3 - -
24/03:30am 28.4 - - - - SE 4 6 2 3 1010.6 - -
24/03:15am 28.8 - - - - ESE 4 - 2 - - 1010.2 -
24/03:00am 28.4 - - - - SE 2 6 1 3 1010.6 - -
24/02:30am 28.2 - - - - ESE 6 6 3 3 1010.7 - -
24/02:15am 28.7 - - - - ESE 4 - 2 - - 1010.3 -
24/02:00am 28.8 - - - - ESE 2 6 1 3 1011.1 - -
24/01:30am 28.9 - - - - E 4 6 2 3 1011.2 - -
24/01:15am 28.8 - - - - ESE 2 - 1 - - 1011.1 -
24/01:00am 28.6 - - - - ESE 4 6 2 3 1011.6 - -
24/12:30am 29.0 - - - - ESE 2 6 1 3 1011.9 - -
24/12:15am 29.0 - - - - ESE 4 - 2 - - 1011.6 -
24/12:00am 28.9 - - - - ESE 4 6 2 3 1012.1 - -
 
Date/Time
EST
Temp
°C
App
Temp
°C
Dew
Point
°C
Rel
Hum
%
Delta-T
°C
Wind Press
QNH
hPa
Press
MSL
hPa
Rain since
9am
mm
Dir  Spd
km/h
Gust
km/h
Spd
kts
Gust
kts
23/11:30pm 28.9 - - - - ESE 4 6 2 3 1012.2 - -
23/11:15pm 28.9 - - - - ESE 4 - 2 - - 1012.0 -
23/11:00pm 28.9 - - - - ESE 2 6 1 3 1012.5 - -
23/10:30pm 29.1 - - - - ESE 4 6 2 3 1012.5 - -
23/10:15pm 29.1 - - - - ESE 4 - 2 - - 1012.1 -
23/10:00pm 29.1 - - - - ESE 4 6 2 3 1012.4 - -
23/09:30pm 28.9 - - - - ESE 2 6 1 3 1012.1 - -
23/09:15pm 29.1 - - - - ESE 2 - 1 - - 1011.7 -
23/09:00pm 29.1 - - - - ESE 4 6 2 3 1011.9 - -
23/08:30pm 29.1 - - - - ESE 2 6 1 3 1011.7 - -
23/08:15pm 29.0 - - - - ESE 2 - 1 - - 1011.4 -
23/08:00pm 29.0 - - - - ESE 2 6 1 3 1011.5 - -
23/07:30pm 29.0 - - - - SE 2 6 1 3 1011.2 - -
23/07:15pm 29.0 - - - - SE 2 - 1 - - 1010.8 -
23/07:00pm 28.9 - - - - SE 19 24 10 13 1010.9 - -
23/06:30pm 28.8 - - - - SE 20 22 11 12 1010.9 - -
23/06:15pm 29.1 - - - - SSE 24 - 13 - - 1010.3 -
23/06:00pm 29.0 - - - - SE 22 26 12 14 1010.3 - -
23/05:30pm 29.0 - - - - SSE 22 24 12 13 1010.2 - -
23/05:15pm 29.1 - - - - SSE 20 - 11 - - 1009.8 -
23/05:00pm 29.1 - - - - SSE 20 22 11 12 1010.1 - -
23/04:30pm 28.9 - - - - SSE 20 22 11 12 1009.8 - -
23/04:15pm 29.0 - - - - SSE 20 - 11 - - 1009.5 -
23/04:00pm 29.3 - - - - SSE 19 22 10 12 1009.8 - -

Other Formats:

Comma delimited format used in spreadsheet applications
http://www.bom.gov.au/fwo/IDQ60801/IDQ60801.94289.axf

JavaScript Object Notation format (JSON) in row-major order
http://www.bom.gov.au/fwo/IDQ60801/IDQ60801.94289.json